Time;durP1;ratioP1;P1;durP2;ratioP2;P2;SDS_P1;SDS_P2;PMS_P1;PMS_P2;Temp;Humidity;BMP_temperature;BMP_pressure;BME280_temperature;BME280_humidity;BME280_pressure;Samples;Min_cycle;Max_cycle;Signal;HPM_P1;HPM_P2
2023/10/22 00:01:54;;;;;;;7.10;2.08;;;12.40;99.90;;;;;;5094185;28;20047;-70
2023/10/22 00:04:20;;;;;;;6.32;1.85;;;12.40;99.90;;;;;;5094130;28;20047;-71
2023/10/22 00:06:47;;;;;;;10.07;2.17;;;12.40;99.90;;;;;;5094494;28;20048;-71
2023/10/22 00:09:13;;;;;;;9.30;1.90;;;12.40;99.90;;;;;;5093294;28;20055;-71
2023/10/22 00:11:39;;;;;;;5.85;2.00;;;12.30;99.90;;;;;;5092839;28;20056;-71
2023/10/22 00:14:04;;;;;;;5.30;1.63;;;12.40;99.90;;;;;;5093281;28;20047;-71
2023/10/22 00:16:30;;;;;;;4.50;1.55;;;12.50;99.90;;;;;;5092949;28;20101;-71
2023/10/22 00:18:56;;;;;;;6.53;1.60;;;12.50;99.90;;;;;;5092536;28;20040;-71
2023/10/22 00:21:21;;;;;;;5.30;1.55;;;12.60;99.90;;;;;;5093384;28;20125;-71
2023/10/22 00:23:47;;;;;;;4.63;1.50;;;12.60;99.90;;;;;;5075993;28;20044;-71
2023/10/22 00:26:13;;;;;;;5.93;1.15;;;12.60;99.90;;;;;;5092660;28;20509;-71
2023/10/22 00:28:39;;;;;;;5.20;1.60;;;12.70;99.90;;;;;;5093795;28;20405;-71
2023/10/22 00:31:05;;;;;;;9.70;2.00;;;12.70;99.90;;;;;;5091946;28;20036;-71
2023/10/22 00:33:30;;;;;;;4.93;1.70;;;12.80;99.90;;;;;;5093220;28;20240;-71
2023/10/22 00:35:58;;;;;;;6.43;1.77;;;12.70;99.90;;;;;;5092149;28;20513;-71
2023/10/22 00:38:25;;;;;;;5.38;2.15;;;12.80;99.90;;;;;;5093001;28;20511;-71
2023/10/22 00:40:51;;;;;;;5.13;1.65;;;12.80;99.90;;;;;;5092130;28;20040;-71
2023/10/22 00:43:16;;;;;;;6.70;1.58;;;12.80;99.90;;;;;;5092624;28;20100;-71
2023/10/22 00:45:43;;;;;;;8.15;1.80;;;12.80;99.90;;;;;;5091024;28;20109;-72
2023/10/22 00:48:09;;;;;;;8.63;1.88;;;12.80;99.90;;;;;;5093126;28;20052;-70
2023/10/22 00:50:35;;;;;;;4.53;1.90;;;12.80;99.90;;;;;;5092898;28;20051;-71
2023/10/22 00:53:03;;;;;;;5.32;1.52;;;12.80;99.90;;;;;;5092168;28;20044;-71
2023/10/22 00:55:30;;;;;;;4.80;1.65;;;12.80;99.90;;;;;;5092840;28;20516;-71
2023/10/22 00:57:57;;;;;;;6.05;1.77;;;12.80;99.90;;;;;;5093722;28;20047;-71
2023/10/22 01:00:25;;;;;;;3.97;1.33;;;12.80;99.90;;;;;;5089234;28;20426;-71
2023/10/22 01:02:51;;;;;;;6.00;1.63;;;12.80;99.90;;;;;;5084313;28;20119;-71
2023/10/22 01:05:16;;;;;;;3.72;1.70;;;12.80;99.90;;;;;;5092252;28;20120;-71
2023/10/22 01:07:42;;;;;;;5.65;1.50;;;12.80;99.90;;;;;;5092479;28;20051;-72
2023/10/22 01:10:09;;;;;;;7.55;1.70;;;12.70;99.90;;;;;;5092777;28;20060;-71
2023/10/22 01:12:37;;;;;;;7.50;1.63;;;12.80;99.90;;;;;;5092394;28;20094;-72
2023/10/22 01:15:04;;;;;;;3.70;1.73;;;12.80;99.90;;;;;;5092639;28;20048;-71
2023/10/22 01:17:30;;;;;;;5.03;1.63;;;12.70;99.90;;;;;;5091607;28;20109;-71
2023/10/22 01:19:55;;;;;;;4.97;1.42;;;12.70;99.90;;;;;;5093018;28;20044;-71
2023/10/22 01:22:21;;;;;;;3.53;1.17;;;12.70;99.90;;;;;;5083454;28;20047;-71
2023/10/22 01:24:47;;;;;;;2.75;1.10;;;12.80;99.90;;;;;;5086591;28;20079;-71
2023/10/22 01:27:13;;;;;;;4.57;1.23;;;12.80;99.90;;;;;;5091502;28;20040;-71
2023/10/22 01:29:38;;;;;;;3.42;1.33;;;12.80;99.90;;;;;;5087249;28;20127;-71
2023/10/22 01:32:05;;;;;;;3.90;1.13;;;12.80;99.90;;;;;;5092673;28;20443;-72
2023/10/22 01:34:31;;;;;;;2.65;1.20;;;12.90;99.90;;;;;;5091686;28;20055;-72
2023/10/22 01:36:56;;;;;;;6.65;1.60;;;12.90;99.90;;;;;;5091760;28;20048;-72
2023/10/22 01:39:22;;;;;;;9.40;1.40;;;12.80;99.90;;;;;;5091572;28;20481;-71
2023/10/22 01:41:49;;;;;;;3.65;1.20;;;12.80;99.90;;;;;;5074606;28;20052;-71
2023/10/22 01:44:15;;;;;;;2.75;1.00;;;12.80;99.90;;;;;;5087943;28;20055;-71
2023/10/22 01:46:41;;;;;;;5.53;1.20;;;12.80;99.90;;;;;;5090611;28;20119;-71
2023/10/22 01:49:06;;;;;;;2.72;1.20;;;12.80;99.90;;;;;;5092023;28;20047;-71
2023/10/22 01:51:32;;;;;;;5.22;1.30;;;12.70;99.90;;;;;;5089643;28;20037;-72
2023/10/22 01:53:58;;;;;;;4.22;1.58;;;12.70;99.90;;;;;;5092121;28;20491;-71
2023/10/22 01:56:24;;;;;;;2.15;1.02;;;12.70;99.90;;;;;;5091104;28;20067;-71
2023/10/22 01:58:50;;;;;;;3.13;1.00;;;12.70;99.90;;;;;;5091999;28;20089;-71
2023/10/22 02:01:16;;;;;;;6.30;1.58;;;12.60;99.90;;;;;;5074180;28;20048;-72
2023/10/22 02:03:45;;;;;;;5.78;1.70;;;12.50;99.90;;;;;;5091476;28;20039;-71
2023/10/22 02:06:14;;;;;;;3.78;1.38;;;12.50;99.90;;;;;;5081853;28;20443;-71
2023/10/22 02:08:41;;;;;;;5.40;1.50;;;12.40;99.90;;;;;;5090297;28;20067;-71
2023/10/22 02:11:07;;;;;;;7.55;2.00;;;12.40;99.90;;;;;;5086984;28;20401;-71
2023/10/22 02:13:33;;;;;;;4.68;1.30;;;12.30;99.90;;;;;;5087099;28;20116;-72
2023/10/22 02:15:59;;;;;;;3.58;1.25;;;12.30;99.90;;;;;;5092239;28;20480;-72
2023/10/22 02:18:24;;;;;;;9.23;2.00;;;12.20;99.90;;;;;;5090627;28;20040;-71
2023/10/22 02:20:57;;;;;;;6.25;1.73;;;12.20;99.90;;;;;;5091492;28;20036;-71
2023/10/22 02:23:23;;;;;;;4.10;1.55;;;12.10;99.90;;;;;;5084369;28;20050;-72
2023/10/22 02:25:49;;;;;;;4.20;1.60;;;12.10;99.90;;;;;;5089616;28;20075;-70
2023/10/22 02:28:16;;;;;;;3.10;1.30;;;12.10;99.90;;;;;;5090674;28;20082;-72
2023/10/22 02:30:42;;;;;;;6.30;1.90;;;12.10;99.90;;;;;;5090932;28;20036;-71
2023/10/22 02:33:08;;;;;;;4.15;1.60;;;12.10;99.90;;;;;;5090230;28;20520;-70
2023/10/22 02:35:41;;;;;;;5.93;1.63;;;12.00;99.90;;;;;;5089389;28;20047;-71
2023/10/22 02:38:08;;;;;;;5.15;1.50;;;12.00;99.90;;;;;;5081492;28;20075;-71
2023/10/22 02:40:37;;;;;;;4.75;1.75;;;12.00;99.90;;;;;;5073934;28;20036;-71
2023/10/22 02:43:03;;;;;;;4.75;1.52;;;11.90;99.90;;;;;;5086583;28;20047;-70
2023/10/22 02:45:30;;;;;;;5.22;1.65;;;11.90;99.90;;;;;;5081936;28;20465;-70
2023/10/22 02:47:58;;;;;;;8.35;2.10;;;11.90;99.90;;;;;;5086376;28;20040;-70
2023/10/22 02:50:24;;;;;;;7.53;2.70;;;11.80;99.90;;;;;;5084938;28;20169;-70
2023/10/22 02:52:55;;;;;;;5.50;1.80;;;11.80;99.90;;;;;;5088602;28;20730;-70
2023/10/22 02:55:20;;;;;;;4.68;1.52;;;11.80;99.90;;;;;;5076539;28;20497;-70
2023/10/22 02:57:47;;;;;;;4.90;2.28;;;11.80;99.90;;;;;;5090463;28;20051;-70
2023/10/22 03:00:14;;;;;;;10.05;2.67;;;11.80;99.90;;;;;;5071727;28;20048;-70
2023/10/22 03:02:40;;;;;;;4.32;1.80;;;11.80;99.90;;;;;;5082439;28;20182;-70
2023/10/22 03:05:07;;;;;;;5.88;1.98;;;11.70;99.90;;;;;;5073382;28;20040;-71
2023/10/22 03:07:33;;;;;;;5.57;2.03;;;11.80;99.90;;;;;;5084268;28;20394;-71
2023/10/22 03:10:00;;;;;;;4.75;2.05;;;11.80;99.90;;;;;;5076597;28;20053;-70
2023/10/22 03:12:26;;;;;;;4.38;1.80;;;11.70;99.90;;;;;;5088840;28;20144;-70
2023/10/22 03:14:52;;;;;;;3.83;1.90;;;11.70;99.90;;;;;;5091171;28;20044;-70
2023/10/22 03:17:19;;;;;;;7.05;2.00;;;11.70;99.90;;;;;;5089519;28;20077;-69
2023/10/22 03:19:45;;;;;;;5.78;2.00;;;11.70;99.90;;;;;;5088611;28;20055;-72
2023/10/22 03:22:11;;;;;;;6.30;2.20;;;11.70;99.90;;;;;;5091671;28;20048;-72
2023/10/22 03:24:38;;;;;;;4.43;1.63;;;11.70;99.90;;;;;;5090986;28;20393;-72
2023/10/22 03:27:04;;;;;;;4.03;1.77;;;11.70;99.90;;;;;;5091283;28;20051;-72
2023/10/22 03:29:31;;;;;;;4.18;1.83;;;11.70;99.90;;;;;;5091123;28;20044;-72
2023/10/22 03:31:57;;;;;;;4.60;1.90;;;11.70;99.90;;;;;;5090768;28;20129;-72
2023/10/22 03:34:24;;;;;;;4.20;1.73;;;11.80;99.90;;;;;;5091485;28;20447;-71
2023/10/22 03:36:50;;;;;;;7.05;2.00;;;11.80;99.90;;;;;;5090517;28;20394;-72
2023/10/22 03:39:17;;;;;;;4.75;2.10;;;11.70;99.90;;;;;;5090505;28;20040;-69
2023/10/22 03:41:43;;;;;;;6.80;2.00;;;11.80;99.90;;;;;;5087731;28;20052;-71
2023/10/22 03:44:09;;;;;;;6.25;2.10;;;11.80;99.90;;;;;;5088027;28;20043;-69
2023/10/22 03:46:35;;;;;;;6.50;2.15;;;11.70;99.90;;;;;;5083086;28;20555;-69
2023/10/22 03:49:01;;;;;;;4.15;2.00;;;11.70;99.90;;;;;;5087060;28;20117;-70
2023/10/22 03:51:26;;;;;;;3.63;1.90;;;11.70;99.90;;;;;;5093322;28;20051;-70
2023/10/22 03:53:53;;;;;;;9.73;2.00;;;11.70;99.90;;;;;;5082050;28;20397;-70
2023/10/22 03:56:20;;;;;;;5.75;1.88;;;11.80;99.90;;;;;;5091927;28;20542;-70
2023/10/22 03:58:46;;;;;;;4.32;1.65;;;11.80;99.90;;;;;;5090090;28;20040;-70
2023/10/22 04:01:11;;;;;;;4.55;1.73;;;11.80;99.90;;;;;;5090638;28;20077;-70
2023/10/22 04:03:37;;;;;;;7.13;1.80;;;11.80;99.90;;;;;;5065222;28;20541;-69
2023/10/22 04:06:03;;;;;;;4.07;2.05;;;11.90;99.90;;;;;;5082660;28;20504;-69
2023/10/22 04:08:29;;;;;;;4.50;1.67;;;11.80;99.90;;;;;;5074608;28;20044;-69
2023/10/22 04:10:55;;;;;;;3.92;1.70;;;11.90;99.90;;;;;;5084810;28;20052;-69
2023/10/22 04:13:21;;;;;;;2.72;1.55;;;11.90;99.90;;;;;;5089967;28;20043;-69
2023/10/22 04:15:48;;;;;;;5.00;1.60;;;11.90;99.90;;;;;;5093340;28;20405;-69
2023/10/22 04:18:15;;;;;;;6.28;1.77;;;11.90;99.90;;;;;;5093875;28;20047;-69
2023/10/22 04:20:41;;;;;;;4.35;1.77;;;11.90;99.90;;;;;;5093303;28;20040;-69
2023/10/22 04:23:10;;;;;;;2.83;1.60;;;11.90;99.90;;;;;;5093704;28;20032;-69
2023/10/22 04:25:40;;;;;;;4.57;1.40;;;11.90;99.90;;;;;;5093891;28;20090;-69
2023/10/22 04:28:15;;;;;;;2.28;1.48;;;11.90;99.90;;;;;;5071700;28;20056;-69
2023/10/22 04:30:45;;;;;;;4.00;1.50;;;11.90;99.90;;;;;;5089828;28;20115;-70
2023/10/22 04:33:12;;;;;;;5.50;1.55;;;11.80;99.90;;;;;;5093605;28;20084;-69
2023/10/22 04:35:37;;;;;;;2.92;1.38;;;11.90;99.90;;;;;;5088860;28;20434;-70
2023/10/22 04:38:04;;;;;;;2.13;1.48;;;11.80;99.90;;;;;;5092661;28;20086;-71
2023/10/22 04:40:34;;;;;;;1.75;1.15;;;11.80;99.90;;;;;;5093187;28;20071;-71
2023/10/22 04:43:00;;;;;;;3.30;1.58;;;11.80;99.90;;;;;;5092788;28;20048;-70
2023/10/22 04:45:26;;;;;;;2.80;1.10;;;11.80;99.90;;;;;;5093274;28;20044;-70
2023/10/22 04:47:54;;;;;;;5.90;1.80;;;11.80;99.90;;;;;;5078854;28;20043;-70
2023/10/22 04:50:19;;;;;;;3.03;1.60;;;11.80;99.90;;;;;;5093440;28;20044;-70
2023/10/22 04:52:45;;;;;;;1.92;1.40;;;11.80;99.90;;;;;;5077161;28;20383;-70
2023/10/22 04:55:11;;;;;;;4.40;1.50;;;11.80;99.90;;;;;;5073415;28;20052;-69
2023/10/22 04:57:37;;;;;;;3.80;1.38;;;11.80;99.90;;;;;;5072802;28;20110;-69
2023/10/22 05:00:07;;;;;;;2.88;1.08;;;11.80;99.90;;;;;;5081655;28;20048;-69
2023/10/22 05:02:34;;;;;;;2.17;1.20;;;11.80;99.90;;;;;;5079253;28;20498;-70
2023/10/22 05:04:59;;;;;;;3.95;1.30;;;11.90;99.90;;;;;;5085383;28;20056;-70
2023/10/22 05:07:25;;;;;;;2.45;1.23;;;11.90;99.90;;;;;;5071818;28;20114;-70
2023/10/22 05:09:51;;;;;;;1.70;1.30;;;11.90;99.90;;;;;;5088423;28;20449;-70
2023/10/22 05:12:17;;;;;;;3.20;1.50;;;11.90;99.90;;;;;;5092064;28;20051;-70
2023/10/22 05:14:42;;;;;;;1.45;1.20;;;11.90;99.90;;;;;;5092788;28;20036;-70
2023/10/22 05:17:08;;;;;;;1.40;1.25;;;11.80;99.90;;;;;;5091454;28;20536;-70
2023/10/22 05:19:35;;;;;;;3.15;1.70;;;11.90;99.90;;;;;;5093216;28;20403;-70
2023/10/22 05:22:01;;;;;;;1.63;1.50;;;11.90;99.90;;;;;;5091696;28;20498;-70
2023/10/22 05:24:27;;;;;;;3.30;1.52;;;11.90;99.90;;;;;;5092503;28;20076;-70
2023/10/22 05:26:53;;;;;;;3.05;1.80;;;11.90;99.90;;;;;;5092200;28;20047;-70
2023/10/22 05:29:18;;;;;;;2.22;1.75;;;11.90;99.90;;;;;;5092095;28;20048;-70
2023/10/22 05:31:44;;;;;;;4.82;2.50;;;11.90;99.90;;;;;;5092490;28;20044;-70
2023/10/22 05:34:10;;;;;;;3.85;2.30;;;11.90;99.90;;;;;;5092577;28;20075;-70
2023/10/22 05:36:36;;;;;;;2.92;2.38;;;11.90;99.90;;;;;;5092319;28;20450;-70
2023/10/22 05:39:02;;;;;;;4.35;2.47;;;11.90;99.90;;;;;;5074120;28;20040;-71
2023/10/22 05:41:28;;;;;;;5.85;3.00;;;11.90;99.90;;;;;;5092310;28;20051;-71
2023/10/22 05:44:01;;;;;;;3.85;2.95;;;12.00;99.90;;;;;;5091977;28;20058;-71
2023/10/22 05:46:34;;;;;;;5.20;3.33;;;12.00;99.90;;;;;;5083338;28;20050;-71
2023/10/22 05:49:03;;;;;;;4.93;3.45;;;12.00;99.90;;;;;;5081063;28;20047;-71
2023/10/22 05:51:29;;;;;;;4.07;3.30;;;12.00;99.90;;;;;;5072449;28;20139;-71
2023/10/22 05:53:54;;;;;;;6.05;3.95;;;12.00;99.90;;;;;;5075087;28;20086;-71
2023/10/22 05:56:20;;;;;;;6.05;3.92;;;12.00;99.90;;;;;;5079365;28;20054;-71
2023/10/22 05:58:46;;;;;;;5.78;3.85;;;12.00;99.90;;;;;;5091099;28;20035;-71
2023/10/22 06:01:12;;;;;;;6.15;4.07;;;12.00;99.90;;;;;;5091599;28;20123;-71
2023/10/22 06:03:38;;;;;;;5.40;4.00;;;12.00;99.90;;;;;;5089229;28;20578;-71
2023/10/22 06:06:04;;;;;;;6.00;3.80;;;12.00;99.90;;;;;;5091067;28;20126;-71
2023/10/22 06:08:30;;;;;;;6.70;3.60;;;12.10;99.90;;;;;;5084158;28;20499;-71
2023/10/22 06:10:56;;;;;;;5.32;3.60;;;12.10;99.90;;;;;;5091649;28;20042;-70
2023/10/22 06:13:21;;;;;;;6.38;3.55;;;12.10;99.90;;;;;;5091660;28;20044;-70
2023/10/22 06:15:47;;;;;;;4.30;3.13;;;12.10;99.90;;;;;;5090238;28;20075;-71
2023/10/22 06:18:13;;;;;;;3.92;2.80;;;12.10;99.90;;;;;;5088653;28;20493;-71
2023/10/22 06:20:39;;;;;;;3.47;1.92;;;12.10;99.90;;;;;;5084417;28;20060;-71
2023/10/22 06:23:05;;;;;;;5.00;1.75;;;12.10;99.90;;;;;;5084776;28;20043;-71
2023/10/22 06:25:32;;;;;;;3.88;1.10;;;12.10;99.90;;;;;;5090281;28;20039;-72
2023/10/22 06:27:59;;;;;;;2.17;1.10;;;12.10;99.90;;;;;;5087120;28;20048;-72
2023/10/22 06:30:26;;;;;;;6.60;1.23;;;12.00;99.90;;;;;;5090605;28;20048;-72
2023/10/22 06:32:53;;;;;;;2.10;1.20;;;12.00;99.90;;;;;;5078023;28;20059;-72
2023/10/22 06:35:23;;;;;;;4.63;1.23;;;12.00;99.90;;;;;;5086989;28;20052;-70
2023/10/22 06:37:52;;;;;;;4.93;1.50;;;11.90;99.90;;;;;;5091070;28;20044;-70
2023/10/22 06:40:19;;;;;;;5.57;1.50;;;11.90;99.90;;;;;;5085675;28;20127;-70
2023/10/22 06:42:44;;;;;;;2.95;1.30;;;11.80;99.90;;;;;;5091122;28;20044;-70
2023/10/22 06:45:10;;;;;;;4.45;1.50;;;11.80;99.90;;;;;;5090739;28;20371;-70
2023/10/22 06:47:37;;;;;;;7.20;2.10;;;11.80;99.90;;;;;;5085749;28;20044;-70
2023/10/22 06:50:07;;;;;;;5.90;2.30;;;11.80;99.90;;;;;;5086060;28;20055;-71
2023/10/22 06:52:33;;;;;;;5.53;2.65;;;11.80;99.90;;;;;;5088861;28;20501;-71
2023/10/22 06:54:59;;;;;;;6.35;3.30;;;11.80;99.90;;;;;;5078101;28;20370;-70
2023/10/22 06:57:25;;;;;;;5.18;2.50;;;11.80;99.90;;;;;;5077799;28;20060;-70
2023/10/22 06:59:52;;;;;;;4.07;1.88;;;11.70;99.90;;;;;;5060512;28;20054;-70
2023/10/22 07:02:19;;;;;;;4.65;1.58;;;11.70;99.90;;;;;;5086305;28;20049;-70
2023/10/22 07:04:47;;;;;;;4.00;1.70;;;11.70;99.90;;;;;;5071512;28;20110;-70
2023/10/22 07:07:13;;;;;;;4.03;1.65;;;11.70;99.90;;;;;;5070702;28;20487;-70
2023/10/22 07:09:39;;;;;;;5.30;1.50;;;11.70;99.90;;;;;;5083749;28;20045;-70
2023/10/22 07:12:05;;;;;;;5.05;1.50;;;11.70;99.90;;;;;;5091317;28;20052;-71
2023/10/22 07:14:31;;;;;;;6.63;1.92;;;11.70;99.90;;;;;;5090981;28;20043;-70
2023/10/22 07:16:56;;;;;;;7.20;1.75;;;11.70;99.90;;;;;;5091435;28;20036;-71
2023/10/22 07:19:22;;;;;;;5.13;1.63;;;11.70;99.90;;;;;;5090969;28;20048;-71
2023/10/22 07:21:48;;;;;;;7.40;2.15;;;11.70;99.90;;;;;;5095074;28;20051;-71
2023/10/22 07:24:14;;;;;;;7.50;1.85;;;11.70;99.90;;;;;;5094530;28;20051;-71
2023/10/22 07:26:39;;;;;;;7.75;2.60;;;11.70;99.90;;;;;;5076162;28;20390;-71
2023/10/22 07:29:05;;;;;;;7.40;2.25;;;11.80;99.90;;;;;;5095257;28;20043;-70
2023/10/22 07:31:31;;;;;;;6.38;2.03;;;11.70;99.90;;;;;;5094232;28;20516;-71
2023/10/22 07:33:57;;;;;;;4.93;2.45;;;11.80;99.90;;;;;;5093596;28;20083;-70
2023/10/22 07:36:23;;;;;;;7.18;2.95;;;11.80;99.90;;;;;;5094714;28;20048;-71
2023/10/22 07:38:51;;;;;;;8.40;3.30;;;11.80;99.90;;;;;;5094994;28;20051;-71
2023/10/22 07:41:18;;;;;;;9.77;3.22;;;11.70;99.90;;;;;;5094230;28;20135;-71
2023/10/22 07:43:44;;;;;;;8.00;3.80;;;11.80;99.90;;;;;;5094756;28;20052;-71
2023/10/22 07:46:10;;;;;;;6.90;3.65;;;11.80;99.90;;;;;;5092842;28;20366;-70
2023/10/22 07:48:37;;;;;;;6.35;3.20;;;11.70;99.90;;;;;;5091486;28;20048;-70
2023/10/22 07:51:13;;;;;;;7.78;2.67;;;11.70;99.90;;;;;;5087764;28;20043;-70
2023/10/22 07:53:40;;;;;;;7.88;2.35;;;11.70;99.90;;;;;;5089972;28;20040;-71
2023/10/22 07:56:06;;;;;;;6.75;2.00;;;11.70;99.90;;;;;;5088400;28;20432;-71
2023/10/22 07:58:32;;;;;;;8.15;2.22;;;11.70;99.90;;;;;;5073089;28;20052;-71
2023/10/22 08:00:59;;;;;;;4.47;1.70;;;11.70;99.90;;;;;;5082692;28;20087;-70
2023/10/22 08:03:27;;;;;;;5.45;1.80;;;11.60;99.90;;;;;;5082878;28;20090;-71
2023/10/22 08:05:53;;;;;;;5.47;1.80;;;11.60;99.90;;;;;;5087223;28;20159;-70
2023/10/22 08:08:19;;;;;;;6.18;2.10;;;11.60;99.90;;;;;;5083275;28;20121;-70
2023/10/22 08:10:44;;;;;;;6.57;3.33;;;11.60;99.90;;;;;;5080036;28;20106;-70
2023/10/22 08:13:10;;;;;;;6.70;3.40;;;11.60;99.90;;;;;;5076601;28;20398;-70
2023/10/22 08:15:36;;;;;;;6.60;3.65;;;11.60;99.90;;;;;;5083369;28;20051;-70
2023/10/22 08:18:02;;;;;;;9.25;3.63;;;11.70;99.90;;;;;;5093502;28;20422;-71
2023/10/22 08:20:28;;;;;;;9.85;3.50;;;11.70;99.90;;;;;;5093212;28;20051;-71
2023/10/22 08:22:55;;;;;;;11.25;3.13;;;11.70;99.90;;;;;;5093008;28;20039;-71
2023/10/22 08:25:21;;;;;;;9.02;2.60;;;11.70;99.90;;;;;;5093295;28;20067;-71
2023/10/22 08:27:46;;;;;;;9.82;3.50;;;11.80;99.90;;;;;;5092412;28;20040;-70
2023/10/22 08:30:13;;;;;;;9.75;3.60;;;11.70;99.90;;;;;;5092755;28;20086;-70
2023/10/22 08:32:45;;;;;;;7.40;2.78;;;11.80;99.90;;;;;;5093362;28;20084;-70
2023/10/22 08:35:11;;;;;;;10.65;2.83;;;11.80;99.90;;;;;;5081797;28;20119;-73
2023/10/22 08:37:44;;;;;;;9.57;3.15;;;11.80;99.90;;;;;;5086690;28;20682;-70
2023/10/22 08:40:10;;;;;;;10.48;2.65;;;11.90;99.90;;;;;;5079529;28;20383;-71
2023/10/22 08:42:37;;;;;;;9.43;2.83;;;12.00;99.90;;;;;;5085007;28;20094;-72
2023/10/22 08:45:04;;;;;;;6.97;2.33;;;12.10;99.90;;;;;;5088657;28;20044;-71
2023/10/22 08:47:30;;;;;;;9.43;2.70;;;12.10;99.90;;;;;;5092182;28;20067;-72
2023/10/22 08:49:56;;;;;;;7.43;2.17;;;12.20;99.90;;;;;;5075901;28;20076;-71
2023/10/22 08:52:22;;;;;;;9.10;2.17;;;12.20;99.90;;;;;;5076988;28;20055;-70
2023/10/22 08:54:49;;;;;;;6.57;2.45;;;12.20;99.90;;;;;;5093614;28;20047;-70
2023/10/22 08:57:16;;;;;;;6.88;2.25;;;12.20;99.90;;;;;;5089523;28;20041;-73
2023/10/22 08:59:43;;;;;;;6.22;2.05;;;12.30;99.90;;;;;;5086035;28;20036;-73
2023/10/22 09:02:11;;;;;;;6.68;1.90;;;12.30;99.90;;;;;;5081105;28;20052;-71
2023/10/22 09:04:38;;;;;;;9.70;2.45;;;12.30;99.90;;;;;;5080362;28;20044;-71
2023/10/22 09:07:03;;;;;;;6.13;1.98;;;12.40;99.90;;;;;;5088660;28;20036;-71
2023/10/22 09:09:34;;;;;;;9.50;2.20;;;12.40;99.90;;;;;;5081546;28;20041;-72
2023/10/22 09:12:03;;;;;;;10.05;2.47;;;12.40;99.90;;;;;;5079849;28;20036;-72
2023/10/22 09:14:29;;;;;;;5.70;2.05;;;12.40;99.90;;;;;;5091612;28;20048;-72
2023/10/22 09:16:55;;;;;;;7.72;2.10;;;12.40;99.90;;;;;;5092253;28;20522;-72
2023/10/22 09:19:35;;;;;;;5.97;1.90;;;12.50;99.90;;;;;;5092895;28;20044;-72
2023/10/22 09:22:01;;;;;;;4.63;2.10;;;12.40;99.90;;;;;;5093024;28;20199;-72
2023/10/22 09:24:26;;;;;;;6.22;1.58;;;12.50;99.90;;;;;;5092651;28;20186;-72
2023/10/22 09:26:53;;;;;;;6.25;1.83;;;12.50;99.90;;;;;;5092750;28;20075;-72
2023/10/22 09:29:18;;;;;;;7.78;1.88;;;12.50;99.90;;;;;;5093128;28;20048;-72
2023/10/22 09:31:55;;;;;;;11.35;1.92;;;12.50;99.90;;;;;;5073291;28;20037;-72
2023/10/22 09:34:34;;;;;;;6.40;1.75;;;12.50;99.90;;;;;;5093089;28;20041;-72
2023/10/22 09:37:00;;;;;;;5.68;1.45;;;12.60;99.90;;;;;;5091380;28;20040;-73
2023/10/22 09:39:39;;;;;;;6.15;1.67;;;12.60;99.90;;;;;;5087857;28;20104;-72
2023/10/22 09:42:06;;;;;;;5.07;1.60;;;12.70;99.90;;;;;;5092769;28;20043;-72
2023/10/22 09:44:33;;;;;;;4.18;1.42;;;12.80;99.90;;;;;;5091100;28;20397;-72
2023/10/22 09:47:05;;;;;;;3.10;1.30;;;12.80;99.90;;;;;;5091780;28;20055;-72
2023/10/22 09:49:32;;;;;;;4.60;1.40;;;12.90;99.90;;;;;;5084483;28;20037;-71
2023/10/22 09:52:00;;;;;;;4.65;1.65;;;13.00;99.90;;;;;;5079538;28;20123;-72
2023/10/22 09:54:40;;;;;;;3.67;1.40;;;13.10;99.90;;;;;;5072304;28;20409;-71
2023/10/22 09:57:14;;;;;;;5.47;1.30;;;13.30;99.90;;;;;;5076621;28;20051;-71
2023/10/22 09:59:44;;;;;;;4.10;1.30;;;13.30;99.90;;;;;;5088496;28;20074;-72
2023/10/22 10:02:15;;;;;;;6.82;1.30;;;13.30;99.90;;;;;;5082232;28;20074;-73
2023/10/22 10:04:43;;;;;;;4.22;1.48;;;13.30;99.90;;;;;;5088028;28;20080;-71
2023/10/22 10:07:09;;;;;;;3.60;1.20;;;13.30;99.90;;;;;;5088326;28;20039;-72
2023/10/22 10:09:36;;;;;;;2.45;1.00;;;13.30;99.90;;;;;;5090770;28;20071;-72
2023/10/22 10:12:06;;;;;;;4.25;1.10;;;13.20;99.90;;;;;;5082640;28;20048;-72
2023/10/22 10:14:45;;;;;;;3.20;1.23;;;13.30;99.90;;;;;;5091597;28;20043;-73
2023/10/22 10:17:19;;;;;;;2.60;1.45;;;13.30;99.90;;;;;;5083985;28;20062;-74
2023/10/22 10:19:47;;;;;;;3.15;1.40;;;13.20;99.90;;;;;;5090124;28;20090;-73
2023/10/22 10:22:38;;;;;;;7.10;1.55;;;13.30;99.90;;;;;;5091218;28;20040;-73
2023/10/22 10:25:29;;;;;;;4.03;1.38;;;13.40;99.90;;;;;;5083183;28;20047;-73
2023/10/22 10:27:55;;;;;;;2.45;1.30;;;13.40;99.90;;;;;;5083072;28;20550;-73
2023/10/22 10:30:21;;;;;;;3.80;1.20;;;13.50;99.90;;;;;;5086405;28;20115;-73
2023/10/22 10:32:49;;;;;;;3.92;1.58;;;13.50;99.90;;;;;;5083582;28;20059;-73
2023/10/22 10:35:15;;;;;;;4.18;1.65;;;13.50;99.90;;;;;;5087461;28;20071;-72
2023/10/22 10:38:13;;;;;;;5.22;1.40;;;13.50;99.90;;;;;;5085005;28;20140;-73
2023/10/22 10:41:03;;;;;;;5.80;1.30;;;13.50;99.90;;;;;;5089577;28;20131;-73
2023/10/22 10:44:12;;;;;;;3.60;1.20;;;13.50;99.90;;;;;;5084522;28;20056;-71
2023/10/22 10:46:38;;;;;;;3.60;1.17;;;13.50;99.90;;;;;;5086473;28;20109;-73
2023/10/22 10:49:04;;;;;;;3.42;1.40;;;13.50;99.90;;;;;;5089177;28;20048;-73
2023/10/22 10:51:30;;;;;;;1.65;1.00;;;13.50;99.90;;;;;;5089856;28;20040;-73
2023/10/22 10:54:04;;;;;;;4.00;1.20;;;13.50;99.90;;;;;;5066727;28;20037;-73
2023/10/22 10:56:51;;;;;;;5.68;1.20;;;13.50;99.90;;;;;;5090774;28;20048;-73
2023/10/22 10:59:32;;;;;;;2.85;1.20;;;13.40;99.90;;;;;;5087633;28;20098;-73
2023/10/22 11:02:02;;;;;;;3.90;1.23;;;13.40;99.90;;;;;;5084067;28;20105;-73
2023/10/22 11:04:30;;;;;;;3.75;1.10;;;13.40;99.90;;;;;;5095288;28;20102;-73
2023/10/22 11:06:57;;;;;;;5.43;1.38;;;13.40;99.90;;;;;;5094221;28;20219;-74
2023/10/22 11:09:24;;;;;;;4.22;1.40;;;13.40;99.90;;;;;;5092457;28;20187;-73
2023/10/22 11:12:04;;;;;;;5.15;1.20;;;13.30;99.90;;;;;;5084613;28;20394;-72
2023/10/22 11:14:31;;;;;;;4.65;1.52;;;13.30;99.90;;;;;;5094330;28;20040;-72
2023/10/22 11:16:58;;;;;;;3.05;1.20;;;13.30;99.90;;;;;;5085647;28;20051;-73
2023/10/22 11:19:26;;;;;;;4.32;0.90;;;13.30;99.90;;;;;;5087221;28;20047;-74
2023/10/22 11:21:54;;;;;;;2.08;1.10;;;13.30;99.90;;;;;;5088126;28;20392;-74
2023/10/22 11:24:22;;;;;;;4.20;1.27;;;13.30;99.90;;;;;;5085942;28;20400;-73
2023/10/22 11:26:50;;;;;;;2.60;1.20;;;13.40;99.90;;;;;;5091885;28;20409;-73
2023/10/22 11:29:15;;;;;;;4.40;1.10;;;13.40;99.90;;;;;;5090200;28;20123;-73
2023/10/22 11:31:56;;;;;;;2.40;1.02;;;13.40;99.90;;;;;;5092662;28;20119;-73
2023/10/22 11:34:22;;;;;;;2.47;0.90;;;13.50;99.90;;;;;;5085385;28;20103;-74
2023/10/22 11:36:48;;;;;;;2.00;1.05;;;13.60;99.90;;;;;;5088834;28;20051;-72
2023/10/22 11:39:21;;;;;;;4.40;1.20;;;13.70;99.90;;;;;;5076008;28;20055;-71
2023/10/22 11:42:00;;;;;;;1.73;0.93;;;13.80;99.90;;;;;;5080724;28;20047;-72
2023/10/22 11:44:36;;;;;;;2.63;1.10;;;13.90;99.90;;;;;;5083305;28;20047;-72
2023/10/22 11:47:21;;;;;;;3.25;1.17;;;14.00;99.90;;;;;;5093118;28;20091;-72
2023/10/22 11:49:47;;;;;;;3.42;1.15;;;14.00;99.90;;;;;;5088209;28;20374;-73
2023/10/22 11:52:37;;;;;;;3.63;1.00;;;14.00;99.90;;;;;;5075017;28;20397;-72
2023/10/22 11:55:07;;;;;;;2.03;1.05;;;14.10;99.90;;;;;;5092977;28;20055;-74
2023/10/22 11:57:37;;;;;;;2.38;1.00;;;14.00;99.90;;;;;;5093351;28;20105;-72
2023/10/22 12:00:04;;;;;;;5.03;1.10;;;13.90;99.90;;;;;;5093700;28;20818;-71
2023/10/22 12:02:30;;;;;;;2.35;0.90;;;13.80;99.90;;;;;;5093877;28;20044;-72
2023/10/22 12:04:56;;;;;;;2.85;0.82;;;13.70;99.90;;;;;;5088795;28;20509;-72
2023/10/22 12:07:22;;;;;;;1.98;0.95;;;13.70;99.90;;;;;;5049725;28;20048;-74
2023/10/22 12:09:48;;;;;;;3.05;1.00;;;13.70;99.90;;;;;;5092784;28;20040;-73
2023/10/22 12:12:13;;;;;;;1.92;0.98;;;13.70;99.90;;;;;;5059616;28;20054;-73
2023/10/22 12:14:39;;;;;;;1.45;0.88;;;13.70;99.90;;;;;;5094189;28;20119;-74
2023/10/22 12:17:06;;;;;;;1.17;0.70;;;13.70;99.90;;;;;;5094014;28;20044;-73
2023/10/22 12:19:32;;;;;;;2.75;0.93;;;13.70;99.90;;;;;;5091120;28;20058;-73
2023/10/22 12:21:57;;;;;;;2.90;1.00;;;13.70;99.90;;;;;;5087418;28;20044;-73
2023/10/22 12:24:23;;;;;;;2.38;1.10;;;13.70;99.90;;;;;;5089244;28;20461;-74
2023/10/22 12:26:49;;;;;;;2.75;1.13;;;13.70;99.90;;;;;;5085498;28;20040;-73
2023/10/22 12:29:17;;;;;;;1.40;0.75;;;13.70;99.90;;;;;;5082537;28;20048;-73
2023/10/22 12:31:43;;;;;;;2.75;1.02;;;13.70;99.90;;;;;;5084581;28;20040;-74
2023/10/22 12:34:09;;;;;;;1.45;1.00;;;13.80;99.90;;;;;;5083352;28;20325;-73
2023/10/22 12:36:35;;;;;;;1.38;0.80;;;13.80;99.90;;;;;;5086664;28;20059;-74
2023/10/22 12:39:01;;;;;;;1.40;0.68;;;13.90;99.90;;;;;;5090066;28;20482;-73
2023/10/22 12:41:27;;;;;;;1.08;0.60;;;13.90;99.90;;;;;;5093347;28;20051;-71
2023/10/22 12:43:53;;;;;;;2.03;0.90;;;13.90;99.90;;;;;;5091855;28;20051;-72
2023/10/22 12:46:19;;;;;;;2.97;0.98;;;13.90;99.90;;;;;;5069682;28;20060;-73
2023/10/22 12:48:44;;;;;;;2.30;1.10;;;13.90;99.90;;;;;;5078450;28;20072;-72